Time;durP1;ratioP1;P1;durP2;ratioP2;P2;SDS_P1;SDS_P2;PMS_P1;PMS_P2;Temp;Humidity;BMP_temperature;BMP_pressure;BME280_temperature;BME280_humidity;BME280_pressure;Samples;Min_cycle;Max_cycle;Signal;HPM_P1;HPM_P2
2022/08/17 00:00:21;;;;;;;8.82;4.63;;;;;;;26.31;51.56;98118.69;5093159;28;20044;-49
2022/08/17 00:03:13;;;;;;;16.88;5.20;;;;;;;26.32;51.59;98104.16;5093060;28;20035;-49
2022/08/17 00:05:44;;;;;;;20.15;5.47;;;;;;;26.41;52.70;98104.91;5094394;28;20481;-48
2022/08/17 00:08:13;;;;;;;16.30;5.38;;;;;;;26.61;52.84;98113.47;5093077;28;20497;-47
2022/08/17 00:10:41;;;;;;;14.07;5.32;;;;;;;26.71;52.29;98121.19;5094266;28;20428;-49
2022/08/17 00:13:09;;;;;;;8.35;4.75;;;;;;;26.65;52.31;98109.03;5094320;28;20024;-49
2022/08/17 00:15:35;;;;;;;23.70;7.40;;;;;;;26.47;52.45;98105.53;5094260;28;20028;-49
2022/08/17 00:18:01;;;;;;;10.68;5.82;;;;;;;26.38;52.54;98115.50;5092915;28;20039;-49
2022/08/17 00:20:27;;;;;;;15.18;5.72;;;;;;;26.35;52.94;98116.16;5094041;28;20099;-49
2022/08/17 00:23:11;;;;;;;17.50;5.75;;;;;;;26.32;52.79;98098.75;5092778;28;20040;-49
2022/08/17 00:25:39;;;;;;;13.52;5.25;;;;;;;26.29;53.05;98104.78;5094044;28;20028;-49
2022/08/17 00:28:06;;;;;;;10.60;5.28;;;;;;;26.20;53.26;98095.91;5093774;28;20079;-49
2022/08/17 00:30:34;;;;;;;12.07;4.80;;;;;;;26.12;53.39;98100.19;5092637;28;20020;-49
2022/08/17 00:33:10;;;;;;;11.80;5.57;;;;;;;26.00;52.51;98106.22;5093915;28;20020;-47
2022/08/17 00:35:37;;;;;;;15.05;6.63;;;;;;;25.87;52.52;98113.28;5093894;28;20103;-48
2022/08/17 00:38:05;;;;;;;13.57;4.82;;;;;;;25.76;51.85;98119.28;5093853;28;20028;-48
2022/08/17 00:40:31;;;;;;;15.05;5.13;;;;;;;25.62;52.20;98112.16;5092450;28;20513;-48
2022/08/17 00:43:08;;;;;;;14.15;5.68;;;;;;;25.59;52.47;98112.75;5093948;28;20550;-48
2022/08/17 00:45:34;;;;;;;10.57;5.10;;;;;;;25.65;52.55;98099.97;5092334;28;20065;-48
2022/08/17 00:48:00;;;;;;;19.98;6.10;;;;;;;25.71;52.30;98121.00;5092311;28;20032;-47
2022/08/17 00:50:25;;;;;;;13.15;9.95;;;;;;;25.97;53.21;98131.03;5093792;28;20073;-48
2022/08/17 00:52:55;;;;;;;16.65;5.93;;;;;;;25.95;52.73;98127.88;5092239;28;20047;-48
2022/08/17 00:55:24;;;;;;;10.00;5.72;;;;;;;25.79;53.00;98111.38;5092192;28;20375;-47
2022/08/17 00:57:54;;;;;;;12.38;5.50;;;;;;;26.01;53.07;98107.78;5093496;28;20024;-49
2022/08/17 01:00:27;;;;;;;14.20;5.40;;;;;;;26.07;52.89;98095.75;5092011;28;20016;-49
2022/08/17 01:02:58;;;;;;;8.82;5.70;;;;;;;26.16;52.29;98093.09;5093609;28;20096;-50
2022/08/17 01:05:28;;;;;;;30.30;6.90;;;;;;;26.07;52.68;98085.00;5091991;28;20028;-48
2022/08/17 01:07:54;;;;;;;21.55;5.97;;;;;;;26.26;52.61;98078.53;5093284;28;20146;-48
2022/08/17 01:10:32;;;;;;;11.77;5.22;;;;;;;26.61;51.71;98057.72;5091847;28;20059;-47
2022/08/17 01:13:01;;;;;;;13.35;5.60;;;;;;;26.75;51.00;98070.97;5092166;28;20040;-47
2022/08/17 01:15:34;;;;;;;11.65;5.68;;;;;;;26.56;50.97;98074.03;5092049;28;20114;-48
2022/08/17 01:17:59;;;;;;;13.43;5.47;;;;;;;26.29;50.51;98075.19;5093458;28;20032;-48
2022/08/17 01:20:25;;;;;;;9.77;5.38;;;;;;;25.90;51.45;98083.09;5091585;28;20027;-48
2022/08/17 01:22:52;;;;;;;13.15;7.20;;;;;;;25.49;52.06;98083.50;5091672;28;20062;-49
2022/08/17 01:25:19;;;;;;;8.98;5.35;;;;;;;25.12;52.85;98089.06;5092977;28;20103;-49
2022/08/17 01:27:46;;;;;;;10.18;4.85;;;;;;;25.11;52.83;98097.41;5091377;28;20052;-49
2022/08/17 01:30:12;;;;;;;11.88;4.50;;;;;;;25.26;52.27;98098.94;5092805;28;20516;-50
2022/08/17 01:32:38;;;;;;;180.98;164.85;;;;;;;25.25;51.86;98114.28;5091464;28;20028;-48
2022/08/17 01:35:06;;;;;;;14.55;13.18;;;;;;;25.04;51.88;98108.63;5091390;28;20051;-48
2022/08/17 01:37:38;;;;;;;13.32;5.40;;;;;;;24.95;52.60;98098.94;5091331;28;20379;-47
2022/08/17 01:40:17;;;;;;;6.78;4.88;;;;;;;25.13;52.24;98087.16;5092565;28;20024;-49
2022/08/17 01:42:57;;;;;;;23.50;6.10;;;;;;;25.38;51.39;98074.94;5092655;28;20107;-47
2022/08/17 01:45:30;;;;;;;14.75;5.28;;;;;;;25.56;51.07;98054.28;5092538;28;20036;-48
2022/08/17 01:47:56;;;;;;;7.95;5.07;;;;;;;25.55;50.74;98057.28;5092573;28;20061;-48
2022/08/17 01:50:29;;;;;;;12.88;5.40;;;;;;;25.49;51.02;98060.13;5092451;28;20123;-47
2022/08/17 01:53:04;;;;;;;7.68;4.40;;;;;;;25.11;51.23;98065.19;5092387;28;20509;-49
2022/08/17 01:55:32;;;;;;;;;;;;;;;24.78;51.43;98068.22;5091538;28;20489;-49
2022/08/17 01:57:58;;;;;;;11.05;4.78;;;;;;;24.49;52.50;98068.69;5091054;28;19908;-49
2022/08/17 02:00:25;;;;;;;9.45;4.50;;;;;;;24.28;52.97;98060.34;5092211;28;20504;-49
2022/08/17 02:02:51;;;;;;;8.25;4.25;;;;;;;24.09;53.10;98055.97;5092220;28;20024;-50
2022/08/17 02:05:18;;;;;;;8.20;5.00;;;;;;;23.93;53.19;98049.38;5092219;28;20016;-48
2022/08/17 02:07:44;;;;;;;37.83;6.57;;;;;;;23.76;53.66;98031.22;5090854;28;20081;-49
2022/08/17 02:10:10;;;;;;;21.77;5.85;;;;;;;23.64;53.97;98042.50;5092390;28;20448;-49
2022/08/17 02:12:37;;;;;;;9.98;4.57;;;;;;;23.62;54.41;98042.00;5090757;28;20028;-49
2022/08/17 02:15:08;;;;;;;49.78;38.70;;;;;;;23.67;54.59;98035.75;5090777;28;20097;-49
2022/08/17 02:17:34;;;;;;;17.35;10.18;;;;;;;23.70;55.05;98024.41;5092140;28;20465;-49
2022/08/17 02:20:00;;;;;;;10.50;5.25;;;;;;;23.78;54.57;98025.59;5090626;28;20056;-49
2022/08/17 02:22:27;;;;;;;9.82;4.32;;;;;;;23.90;54.33;98032.03;5090666;28;20067;-49
2022/08/17 02:24:56;;;;;;;13.80;6.68;;;;;;;23.84;54.26;98019.03;5092248;28;20098;-49
2022/08/17 02:27:22;;;;;;;16.23;5.60;;;;;;;23.68;54.87;98010.53;5090255;28;20456;-50
2022/08/17 02:29:47;;;;;;;14.45;5.10;;;;;;;23.47;54.91;98004.84;5090614;28;20085;-49
2022/08/17 02:32:18;;;;;;;9.82;5.20;;;;;;;23.29;55.70;97991.28;5090550;28;20028;-49
2022/08/17 02:34:44;;;;;;;9.70;7.05;;;;;;;23.20;55.52;97968.19;5090497;28;20020;-49
2022/08/17 02:37:10;;;;;;;7.97;4.97;;;;;;;23.13;55.88;97977.44;5090495;28;20490;-49
2022/08/17 02:39:37;;;;;;;9.57;5.65;;;;;;;23.05;55.95;97974.66;5091744;28;20038;-49
2022/08/17 02:42:03;;;;;;;6.20;4.65;;;;;;;22.98;56.73;97972.38;5091715;28;20109;-49
2022/08/17 02:44:29;;;;;;;9.23;4.65;;;;;;;22.91;57.13;97959.38;5091785;28;20023;-49
2022/08/17 02:46:56;;;;;;;7.78;5.00;;;;;;;22.70;57.80;97952.88;5091775;28;20028;-49
2022/08/17 02:49:21;;;;;;;10.00;5.07;;;;;;;22.48;59.15;97954.34;5090491;28;20413;-49
2022/08/17 02:51:49;;;;;;;6.28;4.65;;;;;;;22.33;59.49;97949.28;5091678;28;20024;-49
2022/08/17 02:54:15;;;;;;;54.60;45.38;;;;;;;22.27;59.56;97943.22;5090428;28;20560;-49
2022/08/17 02:56:41;;;;;;;11.77;6.90;;;;;;;22.23;59.61;97936.06;5091582;28;20024;-49
2022/08/17 02:59:07;;;;;;;8.10;5.82;;;;;;;22.18;59.61;97938.84;5090255;28;20032;-49
2022/08/17 03:01:33;;;;;;;10.00;5.80;;;;;;;22.18;59.74;97939.63;5090275;28;20028;-49
2022/08/17 03:03:59;;;;;;;10.27;5.75;;;;;;;22.20;59.62;97934.00;5090353;28;20016;-49
2022/08/17 03:06:27;;;;;;;7.18;4.95;;;;;;;22.22;59.93;97939.84;5091512;28;20032;-49
2022/08/17 03:08:53;;;;;;;10.93;5.25;;;;;;;22.16;59.80;97941.03;5091581;28;20016;-49
2022/08/17 03:11:19;;;;;;;11.98;5.43;;;;;;;22.08;59.79;97945.16;5091532;28;20028;-49
2022/08/17 03:13:44;;;;;;;6.65;5.18;;;;;;;22.02;59.95;97951.69;5091559;28;20103;-49
2022/08/17 03:16:10;;;;;;;10.63;5.10;;;;;;;21.99;59.97;97942.34;5091500;28;20025;-49
2022/08/17 03:18:36;;;;;;;7.95;4.90;;;;;;;21.96;60.02;97942.16;5091540;28;20038;-49
2022/08/17 03:21:03;;;;;;;9.82;5.60;;;;;;;21.94;60.09;97950.47;5091366;28;20024;-49
2022/08/17 03:23:30;;;;;;;7.07;5.53;;;;;;;21.97;59.78;97944.50;5090088;28;20020;-49
2022/08/17 03:25:57;;;;;;;8.40;5.72;;;;;;;22.01;59.85;97947.41;5091054;28;20078;-49
2022/08/17 03:28:24;;;;;;;13.90;7.32;;;;;;;22.03;60.70;97948.69;5091469;28;20122;-49
2022/08/17 03:30:50;;;;;;;7.20;5.32;;;;;;;21.94;61.23;97942.44;5090008;28;20512;-49
2022/08/17 03:33:17;;;;;;;7.35;4.95;;;;;;;21.80;61.59;97946.97;5091297;28;20038;-49
2022/08/17 03:35:43;;;;;;;9.45;5.47;;;;;;;21.74;61.86;97957.72;5089979;28;20032;-49
2022/08/17 03:38:13;;;;;;;13.82;5.28;;;;;;;21.73;62.24;97958.81;5090025;28;20025;-49
2022/08/17 03:40:39;;;;;;;6.10;5.10;;;;;;;21.72;62.14;97954.53;5095118;28;20073;-49
2022/08/17 03:43:09;;;;;;;13.57;6.03;;;;;;;21.67;63.00;97951.16;5093626;28;20419;-50
2022/08/17 03:56:42;;;;;;;111.00;101.50;;;;;;;23.26;59.89;97951.75;5094946;28;20043;-50
2022/08/17 03:59:18;;;;;;;25.85;15.52;;;;;;;23.37;59.89;97962.22;5093259;28;20405;-49
2022/08/17 04:01:46;;;;;;;10.40;5.90;;;;;;;23.50;58.88;97972.91;5093538;28;20097;-49
2022/08/17 04:04:12;;;;;;;23.15;6.15;;;;;;;23.35;58.51;97983.16;5094583;28;20016;-49
2022/08/17 04:06:39;;;;;;;19.55;6.93;;;;;;;23.35;58.25;97986.63;5093137;28;20114;-49
2022/08/17 04:09:05;;;;;;;16.58;8.63;;;;;;;23.23;58.17;97999.72;5094451;28;20438;-49
2022/08/17 04:11:32;;;;;;;10.15;6.97;;;;;;;23.17;58.15;98006.28;5094292;28;20086;-49
2022/08/17 04:13:57;;;;;;;17.52;7.03;;;;;;;23.16;58.94;98029.59;5093083;28;20039;-49
2022/08/17 04:16:24;;;;;;;9.52;5.13;;;;;;;23.64;57.57;98041.69;5094229;28;20485;-49
2022/08/17 04:18:50;;;;;;;9.13;5.70;;;;;;;23.72;56.64;98057.88;5092852;28;20032;-49
2022/08/17 04:21:18;;;;;;;7.93;5.43;;;;;;;23.46;56.66;98073.69;5094237;28;20028;-49
2022/08/17 04:23:44;;;;;;;8.77;5.78;;;;;;;23.22;57.38;98089.97;5092806;28;20016;-49
2022/08/17 04:26:11;;;;;;;558.25;439.63;;;;;;;23.00;57.99;98089.81;5092515;28;20127;-49
2022/08/17 04:28:36;;;;;;;73.03;61.15;;;;;;;22.89;58.54;98098.03;5092692;28;20045;-49
2022/08/17 04:31:03;;;;;;;17.77;8.32;;;;;;;23.03;58.57;98099.97;5092640;28;20081;-49
2022/08/17 04:33:29;;;;;;;406.08;373.90;;;;;;;23.24;58.00;98124.47;5093925;28;20055;-49
2022/08/17 04:36:01;;;;;;;25.67;23.23;;;;;;;23.47;57.41;98120.78;5092604;28;20370;-50
2022/08/17 04:38:30;;;;;;;13.98;6.50;;;;;;;23.66;56.73;98120.69;5092593;28;20024;-48
2022/08/17 04:43:43;;;;;;;856.75;766.35;;;;;;;23.90;55.54;98141.91;5094034;28;20085;-48
2022/08/17 04:46:20;;;;;;;60.53;54.72;;;;;;;23.91;54.94;98150.75;5092414;28;20023;-48
2022/08/17 04:48:48;;;;;;;39.15;34.80;;;;;;;23.92;54.68;98157.69;5092348;28;20046;-47
2022/08/17 04:51:26;;;;;;;16.15;7.22;;;;;;;24.04;54.53;98170.56;5092363;28;20114;-48
2022/08/17 04:53:55;;;;;;;11.70;6.55;;;;;;;24.16;53.79;98178.88;5093615;28;20089;-48
2022/08/17 04:56:24;;;;;;;18.85;5.28;;;;;;;24.27;53.39;98179.44;5092154;28;20082;-49
2022/08/17 04:58:53;;;;;;;11.55;5.80;;;;;;;24.37;53.05;98178.41;5093356;28;20020;-49
2022/08/17 05:01:21;;;;;;;60.65;54.88;;;;;;;24.51;52.48;98185.34;5093362;28;20066;-49
2022/08/17 05:03:46;;;;;;;12.18;7.05;;;;;;;24.64;51.94;98196.34;5092307;28;20053;-49
2022/08/17 05:06:15;;;;;;;10.98;4.68;;;;;;;24.80;51.55;98194.84;5093330;28;20016;-49
2022/08/17 05:08:40;;;;;;;13.27;5.03;;;;;;;25.01;51.01;98192.47;5091924;28;20027;-49
2022/08/17 05:11:07;;;;;;;51.33;38.45;;;;;;;25.06;50.66;98178.91;5093198;28;20020;-49
2022/08/17 05:13:33;;;;;;;12.48;5.65;;;;;;;25.15;50.19;98176.25;5093413;28;20405;-49
2022/08/17 05:16:02;;;;;;;18.52;5.63;;;;;;;25.29;50.08;98173.50;5091868;28;20599;-47
2022/08/17 05:18:29;;;;;;;17.35;4.95;;;;;;;25.49;49.73;98170.28;5091761;28;20028;-49
2022/08/17 05:20:55;;;;;;;25.00;6.15;;;;;;;25.48;49.23;98176.75;5092932;28;20501;-50
2022/08/17 05:23:23;;;;;;;22.20;6.13;;;;;;;25.21;49.82;98177.75;5091620;28;20028;-49
2022/08/17 05:25:51;;;;;;;18.58;6.00;;;;;;;24.93;50.62;98163.66;5074722;28;20366;-50
2022/08/17 05:28:19;;;;;;;13.48;4.53;;;;;;;24.94;50.68;98175.22;5092839;28;20016;-49
2022/08/17 05:30:48;;;;;;;12.00;5.00;;;;;;;24.78;50.80;98180.16;5092868;28;20031;-49
2022/08/17 05:33:27;;;;;;;685.65;615.53;;;;;;;24.65;51.51;98163.00;5092819;28;20501;-49
2022/08/17 05:35:58;;;;;;;32.17;26.15;;;;;;;24.78;51.19;98158.69;5091422;28;20415;-49
2022/08/17 05:38:27;;;;;;;22.35;7.07;;;;;;;24.78;51.03;98143.38;5092742;28;20363;-49
2022/08/17 05:40:53;;;;;;;22.90;5.60;;;;;;;24.73;51.28;98135.47;5092598;28;20111;-49
2022/08/17 05:43:25;;;;;;;29.20;6.65;;;;;;;24.71;51.10;98133.09;5092862;28;20020;-49
2022/08/17 05:46:12;;;;;;;10.98;4.28;;;;;;;24.74;51.08;98136.25;5092663;28;20485;-49
2022/08/17 05:48:42;;;;;;;7.00;4.45;;;;;;;24.66;50.89;98140.47;5092596;28;20024;-49
2022/08/17 05:51:28;;;;;;;12.27;4.53;;;;;;;24.52;51.67;98135.16;5092793;28;20020;-49
2022/08/17 05:54:07;;;;;;;6.43;4.00;;;;;;;24.46;51.56;98137.13;5092521;28;20028;-48
2022/08/17 05:56:41;;;;;;;6.82;4.13;;;;;;;24.68;51.56;98122.94;5092647;28;20126;-49
2022/08/17 05:59:33;;;;;;;8.50;4.40;;;;;;;25.04;49.82;98130.09;5092319;28;21967;-49
2022/08/17 06:02:14;;;;;;;8.52;3.78;;;;;;;25.21;49.64;98145.53;5090421;28;20042;-50
2022/08/17 06:05:08;;;;;;;9.48;4.85;;;;;;;25.93;48.38;98143.53;5092341;28;20111;-49
2022/08/17 06:07:59;;;;;;;8.80;4.18;;;;;;;26.95;45.97;98142.19;5091238;28;20073;-49
2022/08/17 06:10:45;;;;;;;7.68;4.38;;;;;;;27.84;44.30;98144.16;5092176;28;20023;-49
2022/08/17 06:13:41;;;;;;;5.22;3.53;;;;;;;27.91;42.95;98143.66;5092265;28;20786;-49
2022/08/17 06:16:12;;;;;;;9.07;4.47;;;;;;;27.62;43.76;98142.56;5092077;28;20051;-49
2022/08/17 06:18:49;;;;;;;7.35;4.53;;;;;;;28.15;42.80;98145.72;5090813;28;20028;-49
2022/08/17 06:21:18;;;;;;;5.55;3.38;;;;;;;27.61;42.98;98141.78;5092041;28;20127;-49
2022/08/17 06:23:54;;;;;;;3.70;3.20;;;;;;;26.68;44.51;98149.56;5092003;28;20020;-50
2022/08/17 06:26:30;;;;;;;5.15;4.03;;;;;;;25.88;46.56;98162.47;5091971;28;20470;-49
2022/08/17 06:29:03;;;;;;;7.72;4.10;;;;;;;25.23;48.11;98154.06;5092014;28;20049;-49
2022/08/17 06:31:35;;;;;;;10.40;3.95;;;;;;;24.74;49.50;98139.72;5090671;28;20426;-47
2022/08/17 06:34:05;;;;;;;7.78;3.78;;;;;;;24.43;50.61;98145.03;5091970;28;20024;-49
2022/08/17 06:36:49;;;;;;;7.95;4.43;;;;;;;24.41;51.34;98160.59;5090528;28;20039;-48
2022/08/17 06:39:35;;;;;;;7.22;4.20;;;;;;;24.54;51.17;98154.44;5090484;28;20444;-49
2022/08/17 06:42:29;;;;;;;8.38;4.00;;;;;;;24.67;50.90;98158.13;5092155;28;20036;-49
2022/08/17 06:45:13;;;;;;;8.80;4.30;;;;;;;24.91;50.66;98163.19;5091838;28;20045;-49
2022/08/17 06:47:58;;;;;;;13.83;5.73;;;;;;;25.47;49.89;98183.25;5091903;28;20028;-47
2022/08/17 06:50:35;;;;;;;21.70;5.45;;;;;;;26.02;48.04;98181.19;5091808;28;20290;-48
2022/08/17 06:53:28;;;;;;;20.60;5.30;;;;;;;26.36;47.73;98174.22;5091710;28;20038;-48
2022/08/17 06:56:09;;;;;;;18.30;5.50;;;;;;;27.44;45.78;98166.91;5090347;28;20062;-48
2022/08/17 06:58:38;;;;;;;29.13;6.47;;;;;;;27.99;44.35;98164.41;5091963;28;20016;-47
2022/08/17 07:01:09;;;;;;;28.85;5.63;;;;;;;28.78;42.47;98162.66;5091563;28;20021;-48
2022/08/17 07:03:48;;;;;;;29.25;5.72;;;;;;;29.29;40.67;98173.22;5091655;28;20016;-48
2022/08/17 07:06:18;;;;;;;26.23;5.80;;;;;;;29.57;40.82;98170.66;5091605;28;20024;-47
2022/08/17 07:09:00;;;;;;;6.35;3.90;;;;;;;30.68;38.02;98178.53;5091635;28;20070;-47
2022/08/17 07:11:26;;;;;;;13.00;4.57;;;;;;;31.46;36.64;98173.59;5091545;28;20393;-48
2022/08/17 07:14:26;;;;;;;10.30;4.07;;;;;;;31.96;35.69;98185.56;5092702;28;20042;-48
2022/08/17 07:16:55;;;;;;;6.55;3.78;;;;;;;32.63;34.28;98173.78;5095545;28;20383;-48
2022/08/17 07:19:32;;;;;;;5.32;3.63;;;;;;;33.38;32.42;98164.22;5093999;28;20026;-49
2022/08/17 07:22:19;;;;;;;11.52;3.85;;;;;;;34.47;31.72;98167.28;5094076;28;20455;-48
2022/08/17 07:24:58;;;;;;;7.25;4.03;;;;;;;35.41;29.91;98163.50;5095256;28;20064;-49
2022/08/17 07:27:49;;;;;;;10.50;3.80;;;;;;;35.74;29.05;98178.97;5093399;28;20424;-49
2022/08/17 07:30:49;;;;;;;14.63;3.78;;;;;;;35.93;28.71;98166.97;5095173;28;20107;-50
2022/08/17 07:33:21;;;;;;;5.53;3.63;;;;;;;35.78;28.24;98166.09;5095218;28;20035;-50
2022/08/17 07:35:48;;;;;;;7.88;3.80;;;;;;;34.75;29.97;98164.09;5095119;28;20028;-49
2022/08/17 07:38:27;;;;;;;9.45;3.67;;;;;;;33.53;31.70;98156.28;5094962;28;20027;-49
2022/08/17 07:41:01;;;;;;;11.15;4.22;;;;;;;32.20;33.69;98153.91;5094893;28;20024;-49
2022/08/17 07:43:38;;;;;;;4.43;2.95;;;;;;;31.71;34.64;98157.09;5094934;28;20024;-48
2022/08/17 07:49:06;;;;;;;3.78;3.30;;;;;;;30.67;35.97;98166.13;5095171;28;20034;-49
2022/08/17 07:51:53;;;;;;;4.97;3.83;;;;;;;31.10;35.49;98161.84;5094783;28;20020;-49
2022/08/17 07:54:34;;;;;;;4.63;4.00;;;;;;;31.75;34.26;98158.72;5093486;28;20038;-49
2022/08/17 07:57:02;;;;;;;7.00;3.55;;;;;;;32.12;34.03;98141.34;5094774;28;20071;-50
2022/08/17 07:59:34;;;;;;;16.05;4.75;;;;;;;31.73;33.74;98138.53;5094814;28;20442;-50
2022/08/17 08:02:02;;;;;;;7.97;4.00;;;;;;;30.90;35.53;98141.19;5094569;28;20066;-48
2022/08/17 08:04:39;;;;;;;4.50;4.05;;;;;;;30.01;37.36;98143.78;5094499;28;20107;-48
2022/08/17 08:07:15;;;;;;;7.13;4.32;;;;;;;29.17;39.37;98149.69;5094424;28;20462;-49
2022/08/17 08:10:07;;;;;;;13.70;4.80;;;;;;;28.94;40.39;98140.41;5094455;28;20501;-49
2022/08/17 08:12:41;;;;;;;6.93;4.00;;;;;;;29.43;39.81;98149.34;5094715;28;20036;-49
2022/08/17 08:15:17;;;;;;;5.57;4.15;;;;;;;30.04;38.39;98134.19;5093014;28;20020;-49
2022/08/17 08:17:59;;;;;;;9.63;3.90;;;;;;;30.04;38.66;98131.47;5094288;28;20505;-50
2022/08/17 08:20:37;;;;;;;7.85;4.00;;;;;;;30.31;38.19;98119.13;5092939;28;20035;-48
2022/08/17 08:23:21;;;;;;;16.75;4.63;;;;;;;31.07;37.40;98094.78;5094178;28;20028;-49
2022/08/17 08:26:19;;;;;;;22.48;4.65;;;;;;;32.74;34.82;98092.44;5093698;28;20109;-48
2022/08/17 08:29:27;;;;;;;26.45;6.53;;;;;;;32.80;34.24;98096.41;5094074;28;20382;-49
2022/08/17 08:32:02;;;;;;;8.02;4.00;;;;;;;33.12;34.03;98098.91;5094106;28;20112;-49
2022/08/17 08:34:34;;;;;;;14.85;4.45;;;;;;;34.15;32.36;98112.44;5094090;28;20024;-49
2022/08/17 08:37:17;;;;;;;9.18;4.68;;;;;;;34.47;31.91;98120.94;5094008;28;20031;-49
2022/08/17 08:39:46;;;;;;;7.82;3.50;;;;;;;34.67;31.10;98128.94;5094092;28;20047;-49
2022/08/17 08:42:45;;;;;;;11.02;3.70;;;;;;;35.41;30.79;98125.28;5093874;28;20027;-49
2022/08/17 08:45:24;;;;;;;20.63;4.22;;;;;;;36.92;28.68;98125.88;5092514;28;20032;-49
2022/08/17 08:47:52;;;;;;;8.05;3.55;;;;;;;37.93;27.19;98121.88;5093864;28;20051;-49
2022/08/17 08:50:59;;;;;;;17.40;4.85;;;;;;;38.86;26.58;98109.59;5093642;28;20031;-49
2022/08/17 08:53:42;;;;;;;12.00;3.60;;;;;;;39.33;25.59;98115.47;5031198;28;20042;-49
2022/08/17 08:56:15;;;;;;;12.50;3.80;;;;;;;39.47;24.85;98106.34;5014682;28;20092;-49
2022/08/17 08:59:15;;;;;;;10.38;3.85;;;;;;;39.67;24.75;98101.03;5031333;28;20069;-49
2022/08/17 09:01:46;;;;;;;19.77;4.93;;;;;;;40.57;23.23;98090.84;5031134;28;20409;-48
2022/08/17 09:04:29;;;;;;;16.65;4.28;;;;;;;40.43;23.32;98100.09;5014470;28;20046;-48
2022/08/17 09:07:08;;;;;;;10.65;4.00;;;;;;;40.19;23.71;98094.50;5014394;28;20108;-49
2022/08/17 09:09:39;;;;;;;11.15;3.78;;;;;;;39.88;24.01;98080.78;5030950;28;20045;-50
2022/08/17 09:12:14;;;;;;;8.43;4.00;;;;;;;40.32;23.63;98089.25;5030905;28;20032;-49
2022/08/17 09:14:48;;;;;;;7.95;4.00;;;;;;;40.25;23.38;98095.59;5030875;28;20037;-48
2022/08/17 09:17:19;;;;;;;14.25;5.32;;;;;;;40.07;23.90;98095.84;5030856;28;20041;-50
2022/08/17 09:19:55;;;;;;;5.47;3.55;;;;;;;40.48;23.30;98091.38;4998371;28;20041;-48
2022/08/17 09:22:41;;;;;;;13.43;4.82;;;;;;;41.09;22.82;98093.94;5030620;28;20423;-52
2022/08/17 09:25:13;;;;;;;23.45;5.93;;;;;;;40.96;22.91;98087.47;5030640;28;20554;-51
2022/08/17 09:27:51;;;;;;;11.32;3.92;;;;;;;41.27;22.65;98081.84;5030333;28;20061;-51
2022/08/17 09:30:18;;;;;;;14.30;4.18;;;;;;;40.84;22.74;98082.59;5091500;28;20498;-51
2022/08/17 09:32:50;;;;;;;7.82;3.13;;;;;;;41.26;22.31;98070.06;5092729;28;20048;-51
2022/08/17 09:35:22;;;;;;;16.10;3.95;;;;;;;41.35;22.17;98077.75;5092776;28;20054;-51
2022/08/17 09:38:08;;;;;;;10.95;3.92;;;;;;;40.55;23.08;98077.53;5091950;28;20043;-51
2022/08/17 09:41:02;;;;;;;26.05;5.25;;;;;;;39.85;24.68;98075.31;5081387;28;20082;-51
2022/08/17 09:43:37;;;;;;;10.57;3.38;;;;;;;39.88;24.11;98078.03;5091388;28;20031;-52
2022/08/17 09:46:07;;;;;;;9.38;3.40;;;;;;;40.60;23.50;98071.53;5092614;28;20054;-52
2022/08/17 09:48:54;;;;;;;13.52;3.97;;;;;;;41.84;21.99;98072.50;5092595;28;20063;-51
2022/08/17 09:51:44;;;;;;;7.57;3.17;;;;;;;43.33;20.68;98071.38;5091240;28;20054;-51
2022/08/17 09:54:25;;;;;;;17.83;4.43;;;;;;;42.96;20.84;98073.50;5092521;28;20028;-51
2022/08/17 09:57:00;;;;;;;13.15;3.55;;;;;;;42.74;20.65;98064.94;5091199;28;20157;-51
2022/08/17 09:59:44;;;;;;;12.55;4.10;;;;;;;43.34;20.27;98058.34;5090963;28;20036;-52
2022/08/17 10:02:39;;;;;;;30.63;5.57;;;;;;;43.23;20.51;98058.59;5092340;28;20032;-52
2022/08/17 10:05:44;;;;;;;10.77;4.00;;;;;;;43.23;20.61;98045.56;5092196;28;20035;-51
2022/08/17 10:08:35;;;;;;;10.52;3.90;;;;;;;43.54;19.86;98052.66;5092286;28;20020;-52
2022/08/17 10:14:26;;;;;;;13.48;4.72;;;;;;;44.68;18.81;98037.34;5092454;28;20520;-51
2022/08/17 10:17:02;;;;;;;13.85;3.90;;;;;;;44.20;19.31;98036.50;5092205;28;20051;-51
2022/08/17 10:19:34;;;;;;;10.90;3.45;;;;;;;43.61;19.36;98022.03;5090788;28;20161;-51
2022/08/17 10:27:47;;;;;;;20.25;4.28;;;;;;;43.61;19.57;98047.69;5091867;28;20083;-50
2022/08/17 10:30:17;;;;;;;14.82;4.05;;;;;;;43.35;19.79;98041.31;5091969;28;20044;-52
2022/08/17 10:32:58;;;;;;;9.52;4.20;;;;;;;42.39;20.45;98025.19;5091945;28;20051;-51
2022/08/17 10:35:50;;;;;;;6.15;3.95;;;;;;;42.36;20.51;98026.84;5091841;28;20032;-51
2022/08/17 10:38:28;;;;;;;14.98;4.45;;;;;;;41.91;21.63;98024.69;5091919;28;20103;-51
2022/08/17 10:41:25;;;;;;;7.30;3.92;;;;;;;42.15;21.02;98014.31;5090442;28;20073;-51
2022/08/17 10:44:05;;;;;;;11.95;3.88;;;;;;;41.86;21.37;98025.97;5086699;28;20040;-53
2022/08/17 10:46:40;;;;;;;8.45;3.53;;;;;;;42.20;21.10;98015.78;5090523;28;20048;-51
2022/08/17 10:49:12;;;;;;;17.13;4.35;;;;;;;43.17;20.30;98013.41;5095202;28;20176;-51
2022/08/17 10:51:40;;;;;;;8.55;3.92;;;;;;;42.96;20.22;98015.50;5095985;28;20028;-51
2022/08/17 10:54:34;;;;;;;14.40;4.20;;;;;;;43.05;20.21;98015.66;5094580;28;20021;-50
2022/08/17 10:57:01;;;;;;;17.92;4.25;;;;;;;42.73;20.50;98019.25;5095746;28;20093;-51
2022/08/17 10:59:35;;;;;;;16.55;4.30;;;;;;;42.62;20.58;98024.25;5095688;28;20020;-52
2022/08/17 11:02:35;;;;;;;8.77;3.55;;;;;;;42.84;20.53;98018.97;5095735;28;20024;-51
2022/08/17 11:05:19;;;;;;;8.63;3.30;;;;;;;43.47;19.43;98023.22;5095602;28;20020;-52
2022/08/17 11:08:17;;;;;;;12.82;3.75;;;;;;;43.51;19.61;98023.09;5095704;28;20063;-50
2022/08/17 11:10:49;;;;;;;10.43;3.80;;;;;;;43.18;20.00;98014.94;5095604;28;20084;-50
2022/08/17 11:13:16;;;;;;;9.50;3.95;;;;;;;43.21;19.70;98014.06;5095558;28;20024;-52
2022/08/17 11:15:59;;;;;;;11.20;4.30;;;;;;;43.35;19.86;98019.22;5095740;28;20074;-51
2022/08/17 11:18:43;;;;;;;;;;;;;;;43.36;19.79;98009.72;5095941;28;20035;-52
2022/08/17 11:21:28;;;;;;;;;;;;;;;43.11;19.91;97996.59;5095735;28;19918;-52
2022/08/17 11:24:21;;;;;;;9.35;3.88;;;;;;;43.14;20.20;97997.69;5094075;28;20441;-51
2022/08/17 11:27:08;;;;;;;11.48;4.10;;;;;;;43.32;19.85;97986.94;5095153;28;20056;-52
2022/08/17 11:29:56;;;;;;;8.65;3.95;;;;;;;42.79;20.05;97976.13;5095082;28;20519;-53
2022/08/17 11:32:42;;;;;;;11.02;3.67;;;;;;;42.65;20.10;97966.22;5093893;28;20024;-51
2022/08/17 11:35:20;;;;;;;7.93;3.58;;;;;;;42.70;20.09;97957.44;5095138;28;20036;-51
2022/08/17 11:38:18;;;;;;;20.00;5.20;;;;;;;42.22;20.82;97964.53;5093793;28;20378;-52
2022/08/17 11:40:59;;;;;;;16.13;4.05;;;;;;;41.68;21.39;97953.94;5092622;28;20440;-51
2022/08/17 11:43:44;;;;;;;9.80;3.78;;;;;;;41.93;20.80;97958.88;5094935;28;20113;-51
2022/08/17 11:46:16;;;;;;;10.15;3.97;;;;;;;42.19;20.49;97959.09;5095411;28;20024;-51
2022/08/17 11:51:53;;;;;;;10.75;4.00;;;;;;;42.24;20.49;97942.00;5095157;28;20054;-52
2022/08/17 11:54:46;;;;;;;22.98;4.82;;;;;;;41.85;21.19;97944.47;5094782;28;20016;-51
2022/08/17 11:57:41;;;;;;;14.50;4.13;;;;;;;41.44;21.17;97948.53;5088301;28;20067;-50
2022/08/17 12:00:28;;;;;;;21.50;4.60;;;;;;;40.78;21.94;97946.69;5087792;28;20111;-51
2022/08/17 12:03:25;;;;;;;37.53;5.32;;;;;;;40.12;22.64;97951.66;5094495;28;20031;-51
2022/08/17 12:06:02;;;;;;;25.55;5.35;;;;;;;39.80;23.23;97950.16;5072462;28;20036;-51
2022/08/17 12:08:32;;;;;;;26.23;5.75;;;;;;;39.72;23.43;97948.69;5094531;28;20439;-50
2022/08/17 12:11:10;;;;;;;30.08;6.25;;;;;;;39.52;23.71;97962.31;5094401;28;20028;-52
2022/08/17 12:13:52;;;;;;;19.08;4.80;;;;;;;39.37;23.89;97960.91;5094396;28;20059;-52
2022/08/17 12:16:20;;;;;;;15.25;4.47;;;;;;;38.91;24.57;97957.47;5094401;28;20039;-52
2022/08/17 12:19:01;;;;;;;24.42;4.85;;;;;;;38.47;24.79;97945.34;5093007;28;20042;-52
2022/08/17 12:21:49;;;;;;;22.63;4.63;;;;;;;37.96;25.35;97940.22;5092888;28;20072;-49
2022/08/17 12:24:35;;;;;;;12.43;4.22;;;;;;;37.83;24.92;97927.41;5094112;28;20044;-50
2022/08/17 12:27:04;;;;;;;17.50;4.32;;;;;;;37.76;25.02;97928.25;5078369;28;20040;-49
2022/08/17 12:29:32;;;;;;;25.15;5.20;;;;;;;37.57;25.97;97924.03;5092794;28;20028;-49